Time;durP1;ratioP1;P1;durP2;ratioP2;P2;SDS_P1;SDS_P2;PMS_P1;PMS_P2;Temp;Humidity;BMP_temperature;BMP_pressure;BME280_temperature;BME280_humidity;BME280_pressure;Samples;Min_cycle;Max_cycle;Signal;HPM_P1;HPM_P2
2021/06/29 00:01:33;;;;;;;6.07;5.57;;;20.30;99.90;;;;;;5090196;28;20224;-54
2021/06/29 00:04:00;;;;;;;5.60;5.20;;;20.20;99.90;;;;;;5096911;28;20764;-48
2021/06/29 00:06:28;;;;;;;6.27;5.77;;;20.20;99.90;;;;;;5097924;28;20201;-51
2021/06/29 00:08:54;;;;;;;5.47;5.07;;;20.20;99.90;;;;;;5095710;28;20216;-48
2021/06/29 00:11:22;;;;;;;6.00;5.50;;;20.10;99.90;;;;;;5099898;28;20213;-48
2021/06/29 00:13:49;;;;;;;5.73;5.23;;;20.10;99.90;;;;;;5095925;28;20277;-51
2021/06/29 00:16:16;;;;;;;5.47;4.97;;;20.10;99.90;;;;;;5086427;28;20201;-48
2021/06/29 00:18:43;;;;;;;5.40;5.00;;;20.00;99.90;;;;;;5100155;28;20205;-52
2021/06/29 00:21:10;;;;;;;6.00;5.50;;;20.00;99.90;;;;;;5105879;28;20217;-49
2021/06/29 00:23:41;;;;;;;5.83;4.87;;;20.00;99.90;;;;;;5104371;28;20581;-49
2021/06/29 00:26:08;;;;;;;5.63;5.23;;;20.00;99.90;;;;;;5105436;28;20189;-49
2021/06/29 00:28:36;;;;;;;6.13;5.63;;;19.90;99.90;;;;;;5105056;28;20293;-48
2021/06/29 00:31:03;;;;;;;5.97;5.47;;;19.90;99.90;;;;;;5088483;28;20208;-48
2021/06/29 00:33:29;;;;;;;6.07;5.57;;;19.80;99.90;;;;;;5105161;28;20201;-52
2021/06/29 00:35:56;;;;;;;5.77;5.37;;;19.80;99.90;;;;;;5099173;28;20408;-49
2021/06/29 00:38:23;;;;;;;5.27;4.87;;;19.80;99.90;;;;;;5101744;28;20201;-48
2021/06/29 00:40:52;;;;;;;5.80;5.30;;;19.80;99.90;;;;;;5095037;28;20224;-47
2021/06/29 00:43:19;;;;;;;6.17;5.67;;;19.80;99.90;;;;;;5098304;28;20193;-49
2021/06/29 00:45:46;;;;;;;8.07;6.33;;;19.80;99.90;;;;;;5087994;28;20672;-51
2021/06/29 00:48:13;;;;;;;5.90;5.50;;;19.70;99.90;;;;;;5098846;28;20289;-51
2021/06/29 00:50:40;;;;;;;6.40;5.83;;;19.80;99.90;;;;;;5101398;28;20222;-52
2021/06/29 00:53:09;;;;;;;6.00;5.60;;;19.80;99.90;;;;;;5098469;28;20907;-47
2021/06/29 00:55:37;;;;;;;6.07;5.60;;;19.80;99.90;;;;;;5097051;28;20197;-49
2021/06/29 00:58:07;;;;;;;5.63;5.13;;;19.80;99.90;;;;;;5097445;28;20193;-48
2021/06/29 01:00:34;;;;;;;5.63;5.23;;;19.80;99.90;;;;;;5093653;28;20221;-53
2021/06/29 01:03:01;;;;;;;5.80;5.30;;;19.80;99.90;;;;;;5094221;28;20895;-49
2021/06/29 01:05:27;;;;;;;6.07;5.47;;;19.70;99.90;;;;;;5105066;28;20210;-49
2021/06/29 01:07:54;;;;;;;8.77;5.87;;;19.70;99.90;;;;;;5094709;28;20399;-47
2021/06/29 01:10:22;;;;;;;5.83;5.33;;;19.70;99.90;;;;;;5105460;28;20213;-52
2021/06/29 01:12:48;;;;;;;5.67;5.27;;;19.70;99.90;;;;;;5101731;28;20223;-49
2021/06/29 01:15:22;;;;;;;6.80;6.20;;;19.60;99.90;;;;;;5105269;28;20201;-49
2021/06/29 01:17:49;;;;;;;6.83;5.90;;;19.60;99.90;;;;;;5081392;28;20824;-53
2021/06/29 01:20:23;;;;;;;5.80;5.30;;;19.60;99.90;;;;;;5103163;28;20304;-48
2021/06/29 01:22:51;;;;;;;6.20;5.60;;;19.50;99.90;;;;;;5101509;28;20193;-49
2021/06/29 01:25:18;;;;;;;6.23;5.73;;;19.50;99.90;;;;;;5105795;28;20246;-47
2021/06/29 01:27:53;;;;;;;5.50;5.10;;;19.30;99.90;;;;;;5102493;28;20612;-50
2021/06/29 01:33:05;;;;;;;6.27;5.77;;;19.20;99.90;;;;;;5088587;28;20220;-48
2021/06/29 01:35:33;;;;;;;6.50;5.90;;;19.20;99.90;;;;;;5103676;28;20201;-51
2021/06/29 01:38:00;;;;;;;6.20;5.70;;;19.30;99.90;;;;;;5103391;28;20948;-49
2021/06/29 01:40:29;;;;;;;6.37;5.87;;;19.30;99.90;;;;;;5105022;28;20716;-47
2021/06/29 01:42:58;;;;;;;7.33;6.73;;;19.30;99.90;;;;;;5102174;28;20412;-53
2021/06/29 01:45:27;;;;;;;6.53;5.93;;;19.30;99.90;;;;;;5105891;28;20221;-47
2021/06/29 01:47:56;;;;;;;6.87;6.27;;;19.20;99.90;;;;;;5087168;28;20201;-50
2021/06/29 01:50:23;;;;;;;6.33;5.80;;;19.20;99.90;;;;;;5106824;28;20229;-50
2021/06/29 01:52:56;;;;;;;6.80;6.30;;;19.20;99.90;;;;;;5104349;28;20529;-51
2021/06/29 01:55:23;;;;;;;6.27;5.67;;;19.20;99.90;;;;;;5104891;28;20646;-51
2021/06/29 01:57:51;;;;;;;7.10;6.50;;;19.10;99.90;;;;;;5105588;28;20922;-47
2021/06/29 02:00:18;;;;;;;6.10;5.60;;;19.10;99.90;;;;;;5094466;28;20276;-47
2021/06/29 02:02:46;;;;;;;6.67;6.07;;;19.00;99.90;;;;;;5099389;28;20580;-52
2021/06/29 02:05:12;;;;;;;6.33;5.83;;;19.00;99.90;;;;;;5092409;28;20568;-51
2021/06/29 02:07:39;;;;;;;6.50;5.90;;;19.00;99.90;;;;;;5101690;28;20288;-53
2021/06/29 02:10:09;;;;;;;7.77;7.07;;;19.00;99.90;;;;;;5101447;28;20224;-48
2021/06/29 02:12:36;;;;;;;6.70;6.20;;;19.00;99.90;;;;;;5101337;28;20217;-48
2021/06/29 02:15:02;;;;;;;6.90;6.30;;;19.00;99.90;;;;;;5106460;28;20908;-53
2021/06/29 02:17:29;;;;;;;6.20;5.70;;;19.00;99.90;;;;;;5109294;28;20201;-52
2021/06/29 02:19:56;;;;;;;6.83;6.13;;;19.00;99.90;;;;;;5083784;28;20372;-49
2021/06/29 02:22:23;;;;;;;6.93;6.23;;;18.90;99.90;;;;;;5104902;28;20193;-49
2021/06/29 02:24:49;;;;;;;7.00;6.33;;;18.90;99.90;;;;;;5104609;28;20192;-51
2021/06/29 02:27:17;;;;;;;6.80;6.20;;;18.90;99.90;;;;;;5109377;28;20561;-48
2021/06/29 02:29:44;;;;;;;7.50;6.80;;;18.80;99.90;;;;;;5098456;28;20197;-50
2021/06/29 02:32:10;;;;;;;6.77;6.17;;;18.70;99.90;;;;;;5107893;28;20221;-48
2021/06/29 02:34:37;;;;;;;6.50;6.00;;;18.70;99.90;;;;;;5099393;28;20205;-53
2021/06/29 02:37:04;;;;;;;6.20;5.70;;;18.70;99.90;;;;;;5099128;28;20199;-48
2021/06/29 02:39:31;;;;;;;7.47;6.70;;;18.70;99.90;;;;;;5107173;28;20208;-54
2021/06/29 02:41:57;;;;;;;6.63;6.07;;;18.70;99.90;;;;;;5105078;28;20224;-48
2021/06/29 02:44:25;;;;;;;7.33;6.63;;;18.70;99.90;;;;;;5108824;28;20571;-47
2021/06/29 02:46:52;;;;;;;7.87;7.27;;;18.70;99.90;;;;;;5102228;28;20193;-52
2021/06/29 02:49:19;;;;;;;7.33;6.73;;;18.70;99.90;;;;;;5104235;28;20580;-48
2021/06/29 02:51:46;;;;;;;7.27;6.67;;;18.70;99.90;;;;;;5086430;28;20233;-53
2021/06/29 02:54:12;;;;;;;7.90;7.17;;;18.70;99.90;;;;;;5104424;28;20189;-46
2021/06/29 02:56:39;;;;;;;7.33;6.73;;;18.70;99.90;;;;;;5103111;28;20197;-52
2021/06/29 02:59:07;;;;;;;9.07;7.03;;;18.70;99.90;;;;;;5103602;28;20189;-51
2021/06/29 03:01:35;;;;;;;6.93;6.33;;;18.60;99.90;;;;;;5103710;28;20221;-49
2021/06/29 03:04:02;;;;;;;7.40;6.80;;;18.50;99.90;;;;;;5102946;28;20189;-51
2021/06/29 03:06:28;;;;;;;8.00;7.30;;;18.50;99.90;;;;;;5089085;28;20217;-49
2021/06/29 03:08:55;;;;;;;7.10;6.47;;;18.50;99.90;;;;;;5100996;28;20193;-48
2021/06/29 03:11:21;;;;;;;8.27;7.57;;;18.50;99.90;;;;;;5104628;28;20221;-46
2021/06/29 03:13:48;;;;;;;7.83;7.20;;;18.50;99.90;;;;;;5100734;28;20972;-49
2021/06/29 03:16:15;;;;;;;7.43;6.83;;;18.50;99.90;;;;;;5104678;28;20200;-48
2021/06/29 03:18:43;;;;;;;7.27;6.67;;;18.50;99.90;;;;;;5097604;27;20208;-54
2021/06/29 03:21:10;;;;;;;7.77;7.17;;;18.50;99.90;;;;;;5088457;28;20953;-46
2021/06/29 03:23:38;;;;;;;7.83;7.23;;;18.50;99.90;;;;;;5102680;28;20193;-51
2021/06/29 03:26:05;;;;;;;7.10;6.57;;;18.50;99.90;;;;;;5101613;28;20189;-47
2021/06/29 03:28:32;;;;;;;7.37;6.73;;;18.50;99.90;;;;;;5104164;28;20193;-52
2021/06/29 03:30:58;;;;;;;8.07;7.27;;;18.50;99.90;;;;;;5101918;28;20217;-51
2021/06/29 03:33:25;;;;;;;7.77;7.07;;;18.50;99.90;;;;;;5104717;28;20232;-49
2021/06/29 03:35:53;;;;;;;8.10;7.50;;;18.50;99.90;;;;;;5086126;28;21032;-50
2021/06/29 03:38:20;;;;;;;8.30;7.50;;;18.50;99.90;;;;;;5103809;28;20208;-50
2021/06/29 03:40:46;;;;;;;7.80;7.20;;;18.50;99.90;;;;;;5100275;28;20584;-53
2021/06/29 03:43:13;;;;;;;8.23;7.60;;;18.50;99.90;;;;;;5104628;28;20193;-49
2021/06/29 03:45:39;;;;;;;7.53;6.83;;;18.60;99.90;;;;;;5102236;28;20202;-52
2021/06/29 03:48:07;;;;;;;8.10;7.30;;;18.50;99.90;;;;;;5097374;28;20190;-46
2021/06/29 03:50:34;;;;;;;8.40;7.70;;;18.60;99.90;;;;;;5097718;28;20585;-52
2021/06/29 03:53:01;;;;;;;9.03;8.13;;;18.60;99.90;;;;;;5092196;28;20222;-49
2021/06/29 03:55:29;;;;;;;8.60;7.83;;;18.60;99.90;;;;;;5103489;28;20202;-54
2021/06/29 03:57:56;;;;;;;8.90;7.50;;;18.60;99.90;;;;;;5101121;28;20401;-46
2021/06/29 04:00:24;;;;;;;9.83;8.97;;;18.60;99.90;;;;;;5103964;28;20228;-46
2021/06/29 04:02:50;;;;;;;8.13;7.33;;;18.60;99.90;;;;;;5100005;28;20187;-46
2021/06/29 04:05:17;;;;;;;8.70;7.90;;;18.60;99.90;;;;;;5104123;28;20201;-47
2021/06/29 04:07:46;;;;;;;8.03;7.23;;;18.70;99.90;;;;;;5077773;28;20604;-52
2021/06/29 04:10:15;;;;;;;8.27;7.57;;;18.70;99.90;;;;;;5103214;28;20700;-46
2021/06/29 04:12:41;;;;;;;8.73;7.93;;;18.80;99.90;;;;;;5099024;28;20252;-52
2021/06/29 04:15:10;;;;;;;8.47;7.67;;;18.80;99.90;;;;;;5102427;28;20213;-50
2021/06/29 04:17:37;;;;;;;9.73;8.87;;;18.90;99.90;;;;;;5101983;28;20622;-49
2021/06/29 04:20:05;;;;;;;8.53;7.73;;;18.90;99.90;;;;;;5101476;28;20196;-49
2021/06/29 04:22:32;;;;;;;9.30;7.67;;;18.90;99.90;;;;;;5099165;28;20190;-51
2021/06/29 04:24:58;;;;;;;8.57;7.77;;;19.00;99.90;;;;;;5085296;28;20189;-49
2021/06/29 04:27:26;;;;;;;8.97;8.20;;;19.00;99.90;;;;;;5101577;28;20205;-47
2021/06/29 04:29:53;;;;;;;9.10;8.07;;;19.10;99.90;;;;;;5099077;28;20200;-46
2021/06/29 04:32:20;;;;;;;8.63;7.77;;;19.10;99.90;;;;;;5103803;28;20232;-48
2021/06/29 04:34:46;;;;;;;9.07;8.27;;;19.20;99.90;;;;;;5098321;28;20568;-53
2021/06/29 04:37:13;;;;;;;9.10;8.37;;;19.20;99.90;;;;;;5099590;28;20197;-46
2021/06/29 04:39:41;;;;;;;9.40;8.47;;;19.20;99.90;;;;;;5085856;28;20205;-52
2021/06/29 04:42:08;;;;;;;9.43;8.53;;;19.30;99.90;;;;;;5101822;28;20213;-49
2021/06/29 04:44:38;;;;;;;9.37;8.53;;;19.30;99.90;;;;;;5102040;28;20229;-51
2021/06/29 04:47:05;;;;;;;10.10;9.10;;;19.30;99.90;;;;;;5101662;28;20191;-47
2021/06/29 04:49:32;;;;;;;10.13;9.17;;;19.40;99.90;;;;;;5102361;28;20209;-48
2021/06/29 04:51:59;;;;;;;9.60;8.73;;;19.40;99.90;;;;;;5100117;28;20221;-50
2021/06/29 04:54:26;;;;;;;10.00;9.10;;;19.50;99.90;;;;;;5088061;28;20216;-46
2021/06/29 04:56:52;;;;;;;10.00;8.87;;;19.50;99.90;;;;;;5098612;28;20195;-50
2021/06/29 04:59:19;;;;;;;10.17;9.17;;;19.60;99.90;;;;;;5103083;28;20197;-51
2021/06/29 05:01:47;;;;;;;8.60;7.87;;;19.70;99.90;;;;;;5099300;28;20583;-50
2021/06/29 05:04:13;;;;;;;10.37;9.40;;;19.70;99.90;;;;;;5103371;28;20706;-51
2021/06/29 05:06:40;;;;;;;9.03;8.33;;;19.70;99.90;;;;;;5092848;28;20212;-52
2021/06/29 05:09:07;;;;;;;8.13;7.53;;;19.80;99.90;;;;;;5084131;28;20217;-50
2021/06/29 05:11:33;;;;;;;8.63;7.93;;;19.80;99.90;;;;;;5101249;28;20686;-51
2021/06/29 05:14:00;;;;;;;8.37;7.67;;;19.80;99.90;;;;;;5100165;28;20213;-46
2021/06/29 05:16:26;;;;;;;10.17;9.17;;;19.90;99.90;;;;;;5102082;28;20205;-46
2021/06/29 05:18:54;;;;;;;10.87;9.87;;;20.00;99.90;;;;;;5098944;28;20347;-47
2021/06/29 05:21:21;;;;;;;9.73;8.73;;;20.10;99.90;;;;;;5103183;28;20689;-46
2021/06/29 05:23:48;;;;;;;11.63;10.20;;;20.20;99.90;;;;;;5100006;28;20662;-49
2021/06/29 05:26:15;;;;;;;10.73;9.77;;;20.20;99.90;;;;;;5092181;28;20204;-50
2021/06/29 05:28:41;;;;;;;10.53;9.63;;;20.20;99.90;;;;;;5103588;28;20201;-51
2021/06/29 05:31:08;;;;;;;11.43;10.40;;;20.30;99.90;;;;;;5106012;28;20225;-50
2021/06/29 05:33:35;;;;;;;11.43;10.37;;;20.40;99.90;;;;;;5105314;28;20231;-49
2021/06/29 05:36:03;;;;;;;12.50;11.30;;;20.40;99.90;;;;;;5104837;28;20193;-47
2021/06/29 05:38:29;;;;;;;12.40;11.17;;;20.50;99.90;;;;;;5100004;28;20201;-51
2021/06/29 05:40:56;;;;;;;13.77;11.13;;;20.60;99.90;;;;;;5087817;28;20459;-49
2021/06/29 05:43:22;;;;;;;12.37;11.13;;;20.70;99.90;;;;;;5106322;28;20268;-51
2021/06/29 05:45:49;;;;;;;12.80;11.50;;;20.70;99.90;;;;;;5102574;28;20201;-48
2021/06/29 05:48:18;;;;;;;12.07;10.93;;;20.80;99.90;;;;;;5106611;28;20204;-46
2021/06/29 05:50:45;;;;;;;12.23;11.03;;;20.90;99.90;;;;;;5102891;28;20225;-53
2021/06/29 05:53:15;;;;;;;12.27;11.07;;;20.90;99.90;;;;;;5106287;28;20224;-53
2021/06/29 05:55:42;;;;;;;13.83;11.53;;;21.00;99.90;;;;;;5092583;28;20201;-52
2021/06/29 05:58:08;;;;;;;12.30;11.10;;;21.10;99.90;;;;;;5101761;28;20189;-47
2021/06/29 06:00:35;;;;;;;13.50;11.37;;;21.20;99.90;;;;;;5104407;28;20217;-51
2021/06/29 06:03:02;;;;;;;12.80;11.43;;;21.30;99.90;;;;;;5104566;28;20189;-49
2021/06/29 06:05:28;;;;;;;12.53;11.23;;;21.40;99.90;;;;;;5106079;28;20209;-52
2021/06/29 06:07:55;;;;;;;11.43;10.30;;;21.50;99.90;;;;;;5099018;28;20398;-49
2021/06/29 06:10:23;;;;;;;12.90;10.87;;;21.60;99.90;;;;;;5105622;28;20214;-47
2021/06/29 06:12:49;;;;;;;11.37;10.37;;;21.70;99.90;;;;;;5086792;28;20209;-50
2021/06/29 06:15:16;;;;;;;10.40;9.43;;;21.70;99.90;;;;;;5105718;28;20208;-46
2021/06/29 06:17:43;;;;;;;9.37;8.47;;;21.80;99.90;;;;;;5103188;28;20670;-51
2021/06/29 06:20:11;;;;;;;10.07;9.17;;;21.90;99.90;;;;;;5105261;28;20581;-47
2021/06/29 06:22:37;;;;;;;8.83;8.03;;;21.90;99.90;;;;;;5103719;28;20198;-48
2021/06/29 06:25:05;;;;;;;8.23;7.37;;;22.00;99.90;;;;;;5103978;28;20216;-48
2021/06/29 06:27:33;;;;;;;7.20;6.57;;;22.10;99.90;;;;;;5089691;28;20262;-51
2021/06/29 06:30:00;;;;;;;8.53;7.60;;;22.10;99.90;;;;;;5102354;28;20850;-46
2021/06/29 06:32:26;;;;;;;7.67;6.97;;;22.20;99.90;;;;;;5106009;28;20204;-46
2021/06/29 06:34:53;;;;;;;6.87;6.13;;;22.20;99.90;;;;;;5101507;28;20217;-49
2021/06/29 06:37:20;;;;;;;6.90;5.57;;;22.30;99.90;;;;;;5101333;28;20659;-48
2021/06/29 06:39:46;;;;;;;5.90;5.40;;;22.40;99.90;;;;;;5100844;28;20197;-52
2021/06/29 06:42:14;;;;;;;6.40;5.13;;;22.40;99.90;;;;;;5106010;28;20205;-45
2021/06/29 06:44:42;;;;;;;5.63;5.20;;;22.40;99.90;;;;;;5087817;28;20209;-52
2021/06/29 06:47:09;;;;;;;5.80;5.20;;;22.50;99.90;;;;;;5104395;28;20190;-49
2021/06/29 06:49:36;;;;;;;6.60;5.33;;;22.60;99.90;;;;;;5103995;28;20206;-47
2021/06/29 06:52:02;;;;;;;6.20;5.70;;;22.70;99.90;;;;;;5101809;28;20312;-50
2021/06/29 06:54:29;;;;;;;5.70;5.27;;;22.80;99.90;;;;;;5104931;28;20252;-51
2021/06/29 06:56:56;;;;;;;6.93;5.27;;;22.90;99.90;;;;;;5102063;28;20299;-47
2021/06/29 06:59:22;;;;;;;7.97;6.20;;;22.90;99.90;;;;;;5089963;28;20205;-48
2021/06/29 07:01:50;;;;;;;6.80;6.30;;;23.00;99.90;;;;;;5100701;28;20221;-47
2021/06/29 07:04:19;;;;;;;6.78;6.10;;;23.10;99.90;;;;;;5104070;28;20212;-46
2021/06/29 07:06:46;;;;;;;6.30;5.70;;;23.20;99.90;;;;;;5099299;28;20209;-52
2021/06/29 07:09:12;;;;;;;6.70;6.20;;;23.20;99.90;;;;;;5099995;28;20209;-47
2021/06/29 07:11:39;;;;;;;9.48;8.63;;;23.20;99.90;;;;;;5102787;28;20227;-52
2021/06/29 07:14:06;;;;;;;7.88;7.18;;;23.20;99.90;;;;;;5086364;28;20267;-45
2021/06/29 07:16:32;;;;;;;8.60;7.90;;;23.20;99.90;;;;;;5103176;28;20201;-51
2021/06/29 07:19:00;;;;;;;8.35;7.65;;;23.30;99.90;;;;;;5101987;28;20208;-48
2021/06/29 07:21:27;;;;;;;8.48;7.78;;;23.30;99.90;;;;;;5104986;28;20217;-49
2021/06/29 07:23:54;;;;;;;8.05;7.43;;;23.40;99.90;;;;;;5100700;28;20185;-47
2021/06/29 07:26:21;;;;;;;6.80;6.30;;;23.60;99.90;;;;;;5105054;28;20920;-46
2021/06/29 07:28:48;;;;;;;7.35;6.65;;;23.70;99.90;;;;;;5085890;28;20558;-52
2021/06/29 07:31:17;;;;;;;10.23;7.70;;;23.80;99.90;;;;;;5099662;28;20221;-47
2021/06/29 07:33:44;;;;;;;9.65;8.75;;;23.90;99.90;;;;;;5100958;28;20241;-51
2021/06/29 07:36:15;;;;;;;9.55;8.70;;;23.90;99.90;;;;;;5104395;28;20206;-48
2021/06/29 07:38:41;;;;;;;10.52;8.93;;;24.00;99.90;;;;;;5101428;28;20630;-49
2021/06/29 07:41:08;;;;;;;10.38;9.48;;;24.00;99.90;;;;;;5103466;28;20221;-46
2021/06/29 07:43:35;;;;;;;10.35;9.45;;;24.00;99.90;;;;;;5100845;27;20200;-49
2021/06/29 07:46:02;;;;;;;11.75;9.50;;;24.10;99.90;;;;;;5087211;28;20817;-48
2021/06/29 07:48:28;;;;;;;10.70;9.80;;;24.10;99.90;;;;;;5102737;28;20197;-49
2021/06/29 07:50:55;;;;;;;10.50;9.32;;;24.10;99.90;;;;;;5100306;28;20292;-46
2021/06/29 07:53:23;;;;;;;10.52;9.48;;;24.10;99.90;;;;;;5104035;28;20193;-51
2021/06/29 07:55:50;;;;;;;9.73;8.45;;;24.20;99.90;;;;;;5100257;28;20185;-48
2021/06/29 07:58:17;;;;;;;10.85;9.95;;;24.20;99.90;;;;;;5104340;28;20205;-46
2021/06/29 08:00:44;;;;;;;11.48;9.15;;;24.30;99.90;;;;;;5088323;28;20229;-53
2021/06/29 08:03:11;;;;;;;11.32;10.23;;;24.30;99.90;;;;;;5101504;27;20205;-46
2021/06/29 08:05:38;;;;;;;11.40;10.48;;;24.40;99.90;;;;;;5101897;28;20700;-49
2021/06/29 08:08:07;;;;;;;12.45;11.25;;;24.50;99.90;;;;;;5102342;28;20201;-51
2021/06/29 08:10:36;;;;;;;11.80;10.73;;;24.50;99.90;;;;;;5102570;28;20308;-48
2021/06/29 08:13:03;;;;;;;11.70;10.70;;;24.60;99.90;;;;;;5100134;28;20181;-46
2021/06/29 08:15:30;;;;;;;12.65;11.55;;;24.50;99.90;;;;;;5100082;28;20217;-55
2021/06/29 08:17:57;;;;;;;12.10;11.07;;;24.50;99.90;;;;;;5088588;28;20206;-46
2021/06/29 08:20:24;;;;;;;10.45;9.55;;;24.60;99.90;;;;;;5103494;28;20308;-46
2021/06/29 08:22:53;;;;;;;10.27;9.48;;;24.70;99.90;;;;;;5099592;28;20189;-46
2021/06/29 08:25:20;;;;;;;10.65;9.65;;;24.70;99.90;;;;;;5103864;28;20201;-46
2021/06/29 08:27:49;;;;;;;11.45;10.43;;;24.70;99.90;;;;;;5099380;28;20547;-51
2021/06/29 08:30:17;;;;;;;16.75;15.05;;;24.80;99.90;;;;;;5103400;28;20638;-48
2021/06/29 08:32:44;;;;;;;17.23;15.10;;;24.80;99.90;;;;;;5078941;28;20593;-54
2021/06/29 08:35:12;;;;;;;12.77;11.48;;;24.90;99.90;;;;;;5102989;28;20217;-49
2021/06/29 08:37:40;;;;;;;10.90;9.82;;;24.90;99.90;;;;;;5101114;28;20197;-51
2021/06/29 08:40:09;;;;;;;9.77;8.98;;;24.90;99.90;;;;;;5102171;28;20193;-50
2021/06/29 08:42:37;;;;;;;9.95;8.90;;;24.90;99.90;;;;;;5100252;28;20683;-50
2021/06/29 08:45:08;;;;;;;9.95;8.73;;;25.00;99.90;;;;;;5101166;28;20239;-46
2021/06/29 08:47:35;;;;;;;8.02;7.32;;;25.10;99.90;;;;;;5086875;28;20227;-49
2021/06/29 08:50:03;;;;;;;7.35;6.85;;;25.00;99.90;;;;;;5100296;28;20298;-46
2021/06/29 08:52:30;;;;;;;7.10;6.50;;;24.90;99.90;;;;;;5102444;27;20499;-52
2021/06/29 08:54:56;;;;;;;8.40;7.55;;;24.90;99.90;;;;;;5099577;28;20466;-49
2021/06/29 08:57:23;;;;;;;7.75;7.15;;;24.90;99.90;;;;;;5103281;28;20196;-52
2021/06/29 08:59:50;;;;;;;7.97;7.32;;;24.90;99.90;;;;;;5098734;28;20204;-47
2021/06/29 09:02:18;;;;;;;7.68;7.05;;;24.90;99.90;;;;;;5103463;28;20204;-46
2021/06/29 09:04:46;;;;;;;8.40;7.70;;;24.80;99.90;;;;;;5084488;28;20210;-53
2021/06/29 09:07:17;;;;;;;8.57;7.53;;;24.90;99.90;;;;;;5102739;28;20292;-48
2021/06/29 09:09:48;;;;;;;9.60;8.70;;;24.80;99.90;;;;;;5099508;28;20564;-54
2021/06/29 09:12:39;;;;;;;9.70;8.60;;;24.70;99.90;;;;;;5103162;28;20197;-50
2021/06/29 09:15:25;;;;;;;7.68;6.97;;;24.70;99.90;;;;;;5094308;28;20217;-47
2021/06/29 09:17:55;;;;;;;9.10;8.30;;;24.70;99.90;;;;;;5095207;28;20185;-46
2021/06/29 09:20:30;;;;;;;8.40;7.70;;;24.60;99.90;;;;;;5087715;28;20586;-47
2021/06/29 09:22:58;;;;;;;7.97;6.95;;;24.50;99.90;;;;;;5099426;28;20284;-47
2021/06/29 09:25:29;;;;;;;8.00;7.22;;;24.40;99.90;;;;;;5103283;28;20277;-47
2021/06/29 09:27:57;;;;;;;7.25;6.57;;;24.40;99.90;;;;;;5099262;28;20572;-45
2021/06/29 09:30:37;;;;;;;8.20;7.47;;;24.40;99.90;;;;;;5102571;28;20229;-47
2021/06/29 09:33:07;;;;;;;7.50;6.72;;;24.40;99.90;;;;;;5101211;28;20192;-46
2021/06/29 09:35:36;;;;;;;8.68;7.95;;;24.40;99.90;;;;;;5086014;28;20248;-50
2021/06/29 09:38:03;;;;;;;9.00;7.05;;;24.40;99.90;;;;;;5100279;28;20900;-49
2021/06/29 09:40:31;;;;;;;8.38;7.57;;;24.50;99.90;;;;;;5102103;28;20228;-53
2021/06/29 09:43:08;;;;;;;7.22;6.72;;;24.70;99.90;;;;;;5097975;28;20289;-46
2021/06/29 09:45:36;;;;;;;7.63;6.93;;;24.70;99.90;;;;;;5100922;28;20588;-50
2021/06/29 09:48:08;;;;;;;8.13;7.32;;;24.80;99.90;;;;;;5100956;28;20194;-47
2021/06/29 09:50:38;;;;;;;7.25;6.70;;;24.90;99.90;;;;;;5085958;28;20668;-52
2021/06/29 09:53:26;;;;;;;7.68;7.03;;;25.00;99.90;;;;;;5100610;28;20185;-46
2021/06/29 09:55:55;;;;;;;6.90;6.35;;;25.20;99.90;;;;;;5098521;28;20282;-49
2021/06/29 09:58:23;;;;;;;6.53;6.13;;;25.20;99.90;;;;;;5102857;28;20190;-46
2021/06/29 10:00:52;;;;;;;8.35;7.18;;;25.30;99.90;;;;;;5098316;28;20209;-47
2021/06/29 10:03:25;;;;;;;6.93;6.25;;;25.30;99.90;;;;;;5102960;28;20203;-46
2021/06/29 10:05:53;;;;;;;7.47;6.88;;;25.40;99.90;;;;;;5077042;28;20189;-48
2021/06/29 10:08:28;;;;;;;6.80;6.28;;;25.50;99.90;;;;;;5095235;28;20214;-47
2021/06/29 10:11:09;;;;;;;7.07;6.47;;;25.50;99.90;;;;;;5094820;28;20420;-47
2021/06/29 10:13:38;;;;;;;6.97;6.38;;;25.50;99.90;;;;;;5104841;28;20192;-50
2021/06/29 10:16:07;;;;;;;7.90;6.40;;;25.40;99.90;;;;;;5104239;28;20237;-47
2021/06/29 10:18:38;;;;;;;7.20;6.63;;;25.50;99.90;;;;;;5104832;28;20799;-51
2021/06/29 10:21:16;;;;;;;8.40;7.68;;;25.40;99.90;;;;;;5089929;28;20905;-45
2021/06/29 10:23:43;;;;;;;8.68;7.95;;;25.30;99.90;;;;;;5095671;28;20205;-54
2021/06/29 10:26:10;;;;;;;8.10;7.30;;;25.10;99.90;;;;;;5105466;28;20705;-47
2021/06/29 10:28:38;;;;;;;7.93;7.32;;;25.10;99.90;;;;;;5104048;28;20206;-52
2021/06/29 10:31:05;;;;;;;8.60;7.90;;;25.10;99.90;;;;;;5104072;28;20300;-46
2021/06/29 10:33:33;;;;;;;8.82;8.13;;;25.10;99.90;;;;;;5104929;28;20197;-51
2021/06/29 10:36:02;;;;;;;8.20;7.47;;;25.10;99.90;;;;;;5088074;28;20436;-49
2021/06/29 10:38:28;;;;;;;8.52;7.82;;;25.20;99.90;;;;;;5104899;28;20206;-52
2021/06/29 10:40:56;;;;;;;9.32;8.52;;;25.10;99.90;;;;;;5101765;28;20209;-47
2021/06/29 10:43:23;;;;;;;7.68;6.97;;;25.00;99.90;;;;;;5105984;28;20194;-46
2021/06/29 10:45:52;;;;;;;8.82;8.10;;;25.00;99.90;;;;;;5101613;28;20197;-46
2021/06/29 10:48:21;;;;;;;7.75;7.03;;;25.10;99.90;;;;;;5105650;28;20201;-46
2021/06/29 10:50:49;;;;;;;7.38;5.72;;;25.10;99.90;;;;;;5101205;28;20217;-53
2021/06/29 10:53:40;;;;;;;8.27;6.55;;;24.90;99.90;;;;;;5090278;28;20560;-45
2021/06/29 10:56:09;;;;;;;7.38;6.68;;;24.80;99.90;;;;;;5103963;28;20219;-49
2021/06/29 10:58:41;;;;;;;6.63;6.00;;;24.80;99.90;;;;;;5103722;28;20203;-53
2021/06/29 11:01:29;;;;;;;9.88;5.85;;;24.80;99.90;;;;;;5104656;28;20308;-47
2021/06/29 11:03:59;;;;;;;6.60;6.07;;;24.80;99.90;;;;;;5101914;28;20197;-49
2021/06/29 11:06:44;;;;;;;6.13;5.63;;;24.80;99.90;;;;;;5098706;28;20203;-47
2021/06/29 11:09:15;;;;;;;7.32;6.72;;;24.90;99.90;;;;;;5102115;28;20197;-49
2021/06/29 11:12:02;;;;;;;7.18;6.05;;;24.80;99.90;;;;;;5102454;28;20739;-52
2021/06/29 11:14:29;;;;;;;7.15;6.43;;;24.80;99.90;;;;;;5104680;28;20200;-52
2021/06/29 11:16:58;;;;;;;7.15;6.47;;;24.90;99.90;;;;;;5101537;28;20596;-46
2021/06/29 11:20:03;;;;;;;7.80;7.03;;;24.90;99.90;;;;;;5104931;28;20193;-49
2021/06/29 11:22:50;;;;;;;6.50;5.90;;;24.80;99.90;;;;;;5100810;28;20193;-53
2021/06/29 11:25:31;;;;;;;6.45;5.95;;;24.70;99.90;;;;;;5099934;28;20201;-48
2021/06/29 11:28:04;;;;;;;6.45;5.38;;;24.70;99.90;;;;;;5101873;28;20833;-50
2021/06/29 11:31:08;;;;;;;5.95;5.50;;;24.60;99.90;;;;;;5104137;28;20217;-50
2021/06/29 11:33:41;;;;;;;12.80;5.93;;;24.60;99.90;;;;;;5096642;28;20223;-50
2021/06/29 11:36:29;;;;;;;8.35;5.50;;;24.60;99.90;;;;;;5103516;28;20214;-49
2021/06/29 11:38:57;;;;;;;6.85;5.72;;;24.60;99.90;;;;;;5085484;28;20488;-49
2021/06/29 11:41:31;;;;;;;6.28;5.78;;;24.50;99.90;;;;;;5103917;28;20217;-49
2021/06/29 11:44:00;;;;;;;6.65;6.15;;;24.40;99.90;;;;;;5101602;28;20347;-45
2021/06/29 11:46:47;;;;;;;6.00;5.60;;;24.30;99.90;;;;;;5104845;28;20255;-50
2021/06/29 11:49:15;;;;;;;6.50;5.93;;;24.10;99.90;;;;;;5099626;28;20201;-46
2021/06/29 11:51:52;;;;;;;6.68;5.57;;;24.00;99.90;;;;;;5101648;28;20694;-53
2021/06/29 11:54:43;;;;;;;5.60;5.30;;;23.90;99.90;;;;;;5088370;28;20288;-48
2021/06/29 11:57:22;;;;;;;6.53;5.50;;;23.80;99.90;;;;;;5098955;28;20209;-45
2021/06/29 11:59:50;;;;;;;6.45;5.55;;;23.90;99.90;;;;;;5094734;28;20258;-46
2021/06/29 12:02:21;;;;;;;6.10;5.60;;;23.90;99.90;;;;;;5103978;28;20199;-45
2021/06/29 12:04:55;;;;;;;6.03;5.53;;;24.10;99.90;;;;;;5100070;28;20284;-52
2021/06/29 12:07:47;;;;;;;6.85;6.35;;;24.20;99.90;;;;;;5101136;27;20211;-46
2021/06/29 12:10:15;;;;;;;6.75;6.13;;;24.30;99.90;;;;;;5068861;28;20571;-45
2021/06/29 12:12:45;;;;;;;9.48;8.77;;;24.50;99.90;;;;;;5100721;28;20204;-49
2021/06/29 12:15:15;;;;;;;9.18;8.38;;;24.60;99.90;;;;;;5096556;28;20555;-45
2021/06/29 12:17:49;;;;;;;7.95;7.25;;;24.70;99.90;;;;;;5094720;28;20193;-51
2021/06/29 12:20:17;;;;;;;8.32;7.60;;;24.70;99.90;;;;;;5103713;28;20221;-46
2021/06/29 12:22:45;;;;;;;7.88;7.18;;;24.70;99.90;;;;;;5100490;28;20255;-52
2021/06/29 12:25:18;;;;;;;7.88;7.13;;;24.80;99.90;;;;;;5103750;28;20189;-48
2021/06/29 12:27:47;;;;;;;9.20;8.43;;;24.80;99.90;;;;;;5084802;27;20209;-52
2021/06/29 12:30:31;;;;;;;9.48;8.52;;;24.80;99.90;;;;;;5103461;28;20713;-45
2021/06/29 12:32:58;;;;;;;8.18;7.40;;;24.90;99.90;;;;;;5099854;28;20190;-46
2021/06/29 12:35:30;;;;;;;7.80;7.20;;;25.00;99.90;;;;;;5103612;28;20240;-48
2021/06/29 12:38:00;;;;;;;7.88;6.90;;;25.00;99.90;;;;;;5094659;28;20197;-46
2021/06/29 12:40:28;;;;;;;8.88;6.70;;;24.90;99.90;;;;;;5102576;28;20232;-46
2021/06/29 12:42:57;;;;;;;7.90;6.10;;;24.90;99.90;;;;;;5084894;28;20716;-46
2021/06/29 12:45:28;;;;;;;8.13;6.40;;;24.90;99.90;;;;;;5103118;28;20189;-47
2021/06/29 12:48:03;;;;;;;6.68;6.07;;;24.90;99.90;;;;;;5099586;28;20322;-45
2021/06/29 12:50:30;;;;;;;7.75;7.05;;;24.90;99.90;;;;;;5096466;28;20217;-51
2021/06/29 12:52:57;;;;;;;7.43;6.72;;;24.80;99.90;;;;;;5099878;28;20204;-47
2021/06/29 12:55:26;;;;;;;7.03;6.43;;;24.80;99.90;;;;;;5102896;28;20224;-46